ORMM METAR and TAF | Updated Today

ORMM METAR

Basrah International Airport

Observation time: 29 min. ago

ORMM 291100Z 29014KT CAVOK 42/M04 Q1005 NOSIG

Need help? Read our tutorial on how to read METARs or read the parsed version below.

Basrah International Airport (ORMM) METAR

  • Weather conditions on Sun, 29 May 2022 11:00:00 +0000 (29 min. ago):
  • Present conditions: Dry
  • Clouds: Clear skies
  • Visibility: Greater than 10 km
  • Wind: 290 degrees at 14 knots
  • Temperature: 42 celsius
  • Dew point: -4 celsius
  • Pressure: 1005 millibars
  • Remarks: None


Useful to know...

ORMM TAF

Basrah International Airport

TAF ORMM 290400Z 2906/3006 30008KT CAVOK TEMPO 2910/2915 30016KT 8000 NSC
Observation time: 7:29 hr. ago
Need help? Read our tutorial on how to read TAFs or read the parsed version below.

Parsed version of TAF for Basrah International Airport (ORMM)

  • From 29 May at 06:00 UTC, to day 30 of the month at 06:00 UTC
  • Visibility: Greater than 10 km
  • Wind: 300 degrees at 8
  • Expected to arise temporarily, from 29 May at 10:00 UTC, to day 29 of the month at 15:00 UTC
  • Clouds: No significant clouds are observed
  • Visibility: 8000 meters
  • Wind: 300 degrees at 16